Data for 04/13/2009

Time Sea-Level Adjusted Pressure Absolute Pressure Temperature Relative Humidity Dew Point   
(mb) (inHg) (mb) (inHg) (C) (F) (%) (C) (F)
00:05 1017 30.03 846 24.98 7.4 45.4 41 -5 23
00:10 1017 30.03 846 24.98 6.9 44.4 41 -5.3 22.4
00:15 1017 30.03 846 24.98 6.9 44.5 41 -5.3 22.4
00:20 1017 30.03 846 24.98 7.2 45 40 -5.6 22
00:25 1017 30.03 846 24.98 7.6 45.7 38 -5.8 21.6
00:30 1017 30.03 846 24.98 7.6 45.6 38 -5.7 21.7
00:35 1017 30.03 846 24.98 7.4 45.4 38 -6.1 21
00:40 1017 30.03 846 24.98 7.5 45.5 38 -5.9 21.3
00:45 1017 30.03 846 24.98 7.6 45.6 37 -6.1 21.1
00:50 1017 30.03 846 24.98 7.5 45.5 38 -6 21.2
00:55 1017 30.03 846 24.98 7.4 45.3 38 -5.9 21.4
01:00 1017 30.03 846 24.98 7.2 45 39 -5.7 21.8
01:05 1017 30.03 846 24.98 7 44.6 40 -5.8 21.5
01:10 1017 30.03 846 24.98 7 44.6 40 -5.7 21.7
01:15 1017 30.03 846 24.98 6.9 44.4 40 -5.7 21.8
01:20 1017 30.03 846 24.98 6.9 44.4 40 -5.9 21.4
01:25 1017 30.03 846 24.98 6.9 44.4 41 -5.4 22.2
01:30 1017 30.03 846 24.98 6.5 43.7 43 -5.2 22.7
01:35 1017 30.03 846 24.98 6.1 42.9 44 -5.4 22.4
01:40 1017 30.03 846 24.98 5.9 42.6 45 -5.2 22.6
01:45 1016 30 846 24.98 5.5 41.9 45 -5.5 22.1
01:50 1016 30 846 24.98 5.8 42.4 44 -5.4 22.3
01:55 1016 30 846 24.98 5.6 42.2 45 -5.3 22.4
02:00 1016 30 846 24.98 5.6 42.1 44 -5.6 21.9
02:05 1016 30 846 24.98 5.9 42.6 43 -5.7 21.8
02:10 1016 30 846 24.98 6.1 43 42 -5.7 21.7
02:15 1016 30 846 24.98 6.2 43.2 43 -5.3 22.4
02:20 1016 30 845 24.95 6 42.8 44 -5.3 22.5
02:25 1016 30 845 24.95 5.7 42.3 45 -5.3 22.4
02:30 1016 30 845 24.95 5.4 41.7 46 -5.2 22.6
02:35 1016 30 845 24.95 5.2 41.4 48 -5 22.9
02:40 1016 30 845 24.95 5 41.1 48 -5.2 22.6
02:45 1016 30 845 24.95 5.2 41.4 46 -5.4 22.3
02:50 1016 30 845 24.95 5.5 41.8 46 -5.1 22.8
02:55 1016 30 845 24.95 5.4 41.8 46 -5.3 22.4
03:00 1016 30 845 24.95 5.7 42.2 44 -5.5 22.1
03:05 1016 30 845 24.95 6 42.8 44 -5.4 22.2
03:10 1016 30 845 24.95 6.1 43 44 -5.2 22.6
03:15 1016 30 845 24.95 5.9 42.5 46 -4.9 23.2
03:20 1016 30 845 24.95 5.5 41.9 47 -4.8 23.4
03:25 1016 30 845 24.95 5.5 41.8 49 -4.4 24.2
03:30 1015 29.97 845 24.95 5.3 41.6 48 -4.8 23.3
03:35 1015 29.97 845 24.95 5.3 41.6 49 -4.4 24.1
03:40 1015 29.97 845 24.95 5.4 41.7 47 -4.9 23.2
03:45 1015 29.97 845 24.95 5.6 42.1 47 -4.7 23.6
03:50 1015 29.97 845 24.95 5.6 42.1 47 -4.7 23.5
03:55 1015 29.97 844 24.92 5.5 41.9 47 -4.8 23.4
04:00 1015 29.97 844 24.92 5.6 42.1 47 -4.7 23.6
04:05 1015 29.97 844 24.92 5.8 42.4 47 -4.6 23.7
04:10 1015 29.97 844 24.92 5.8 42.5 47 -4.5 23.8
04:15 1015 29.97 844 24.92 5.8 42.4 48 -4.3 24.2
04:20 1015 29.97 844 24.92 5.6 42.1 47 -4.7 23.5
04:25 1015 29.97 844 24.92 5.7 42.3 47 -4.6 23.7
04:30 1015 29.97 844 24.92 5.9 42.6 46 -4.8 23.3
04:35 1015 29.97 844 24.92 6.1 43 45 -4.8 23.3
04:40 1015 29.97 844 24.92 6.2 43.2 46 -4.5 23.9
04:45 1015 29.97 844 24.92 6.1 42.9 46 -4.6 23.8
04:50 1015 29.97 844 24.92 6.3 43.4 46 -4.5 23.9
04:55 1015 29.97 844 24.92 6.3 43.4 49 -3.7 25.3
05:00 1015 29.97 844 24.92 5.9 42.7 49 -3.9 25
05:05 1015 29.97 844 24.92 5.9 42.6 48 -4.2 24.4
05:10 1015 29.97 844 24.92 6 42.7 47 -4.5 24
05:15 1015 29.97 844 24.92 6.1 42.9 48 -4.1 24.6
05:20 1015 29.97 844 24.92 6.1 43.1 47 -4.3 24.2
05:25 1015 29.97 844 24.92 6.3 43.3 47 -4.2 24.5
05:30 1015 29.97 844 24.92 6.3 43.3 48 -3.9 24.9
05:35 1015 29.97 844 24.92 6.2 43.1 48 -4.1 24.6
05:40 1015 29.97 844 24.92 6.5 43.6 47 -4 24.7
05:45 1015 29.97 844 24.92 6.7 44 47 -3.8 25.2
05:50 1015 29.97 844 24.92 6.5 43.7 47 -3.9 24.9
05:55 1015 29.97 844 24.92 6.6 43.9 49 -3.4 26
06:00 1015 29.97 844 24.92 6.6 43.9 48 -3.6 25.6
06:05 1015 29.97 844 24.92 6.7 44.1 47 -3.8 25.1
06:10 1015 29.97 844 24.92 6.7 44.1 49 -3.2 26.2
06:15 1015 29.97 844 24.92 6.3 43.3 50 -3.3 26.1
06:20 1015 29.97 844 24.92 5.9 42.7 51 -3.4 25.9
06:25 1015 29.97 844 24.92 6 42.9 48 -4.1 24.7
06:30 1015 29.97 844 24.92 6.6 43.9 47 -3.8 25.2
06:35 1015 29.97 844 24.92 6.7 44.1 47 -3.8 25.1
06:40 1015 29.97 844 24.92 6.8 44.2 47 -3.6 25.5
06:45 1014 29.94 844 24.92 6.7 44.1 49 -3.2 26.2
06:50 1014 29.94 844 24.92 6.2 43.2 53 -2.6 27.3
06:55 1014 29.94 843 24.89 5.7 42.2 55 -2.7 27.1
07:00 1014 29.94 844 24.92 5.7 42.2 52 -3.4 25.9
07:05 1014 29.94 844 24.92 5.9 42.6 53 -3.1 26.5
07:10 1014 29.94 843 24.89 5.9 42.6 51 -3.5 25.7
07:15 1014 29.94 843 24.89 6.1 43.1 50 -3.5 25.7
07:20 1014 29.94 843 24.89 6.1 43.1 52 -3 26.6
07:25 1014 29.94 843 24.89 6.1 43 50 -3.5 25.6
07:30 1014 29.94 843 24.89 6.3 43.4 49 -3.5 25.7
07:35 1014 29.94 843 24.89 6.7 44.1 50 -2.8 26.9
07:40 1014 29.94 843 24.89 6.8 44.2 48 -3.6 25.6
07:45 1014 29.94 843 24.89 6.7 44 50 -2.9 26.7
07:50 1014 29.94 843 24.89 6.6 43.9 51 -2.9 26.8
07:55 1014 29.94 843 24.89 6.5 43.7 52 -2.7 27.2
08:00 1014 29.94 843 24.89 6.6 43.9 50 -3 26.6
08:05 1014 29.94 843 24.89 7 44.5 47 -3.6 25.5
08:10 1014 29.94 843 24.89 7.3 45.2 45 -3.7 25.3
08:15 1014 29.94 843 24.89 7.7 45.8 47 -3.1 26.5
08:20 1014 29.94 843 24.89 7.9 46.2 44 -3.5 25.8
08:25 1014 29.94 843 24.89 8.4 47.2 38 -4.9 23.2
08:30 1014 29.94 843 24.89 9 48.3 39 -4 24.7
08:35 1014 29.94 843 24.89 9.2 48.6 39 -3.9 25
08:40 1014 29.94 843 24.89 9.5 49.2 39 -3.9 25
08:45 1014 29.94 843 24.89 9.7 49.4 39 -3.7 25.3
08:50 1014 29.94 843 24.89 9.7 49.5 38 -3.7 25.3
08:55 1014 29.94 843 24.89 9.9 49.8 40 -3.1 26.4
09:00 1014 29.94 843 24.89 10 50 40 -3.1 26.5
09:05 1014 29.94 843 24.89 10.1 50.2 38 -3.7 25.4
09:10 1014 29.94 843 24.89 10 50 40 -3 26.7
09:15 1014 29.94 843 24.89 10 50.1 39 -3.2 26.2
09:20 1014 29.94 843 24.89 10 50 39 -3.3 26.1
09:25 1014 29.94 843 24.89 10.1 50.2 39 -3.2 26.3
09:30 1014 29.94 843 24.89 10.1 50.1 39 -3.1 26.5
09:35 1013 29.91 843 24.89 10 50.1 40 -2.9 26.9
09:40 1014 29.94 843 24.89 10 49.9 41 -2.7 27.2
09:45 1013 29.91 843 24.89 10 49.9 42 -2.4 27.7
09:50 1013 29.91 843 24.89 9.8 49.6 42 -2.5 27.5
09:55 1013 29.91 843 24.89 9.7 49.5 43 -2.1 28.2
10:00 1013 29.91 843 24.89 9.8 49.6 43 -2.2 28.1
10:05 1013 29.91 843 24.89 10 50 43 -2 28.3
10:10 1013 29.91 842 24.86 10.2 50.4 40 -2.6 27.3
10:15 1013 29.91 842 24.86 10.3 50.6 40 -2.7 27.1
10:20 1013 29.91 842 24.86 10.5 50.8 40 -2.4 27.6
10:25 1013 29.91 842 24.86 10.8 51.5 39 -2.4 27.7
10:30 1013 29.91 842 24.86 11.1 52 38 -2.7 27.2
10:35 1013 29.91 842 24.86 11 51.9 39 -2.5 27.5
10:40 1013 29.91 842 24.86 11.3 52.3 37 -2.6 27.2
10:45 1013 29.91 842 24.86 12 53.6 35 -2.9 26.7
10:50 1013 29.91 842 24.86 12.8 55 35 -2.3 27.9
10:55 1013 29.91 842 24.86 11.7 53.1 37 -2.4 27.8
11:00 1013 29.91 842 24.86 11.5 52.7 37 -2.5 27.5
11:05 1013 29.91 842 24.86 11.5 52.6 38 -2.4 27.6
11:10 1013 29.91 842 24.86 11.7 53 36 -2.7 27.1
11:15 1013 29.91 842 24.86 12.4 54.3 34 -2.8 26.9
11:20 1013 29.91 842 24.86 12.7 54.9 33 -2.9 26.7
11:25 1012 29.88 842 24.86 12.5 54.5 34 -2.8 26.9
11:30 1012 29.88 842 24.86 12.9 55.2 32 -3.4 25.8
11:35 1012 29.88 841 24.83 13 55.4 31 -3.7 25.3
11:40 1012 29.88 841 24.83 13.4 56.2 31 -3.4 25.8
11:45 1012 29.88 841 24.83 13.4 56.1 31 -3.2 26.2
11:50 1012 29.88 841 24.83 13.2 55.8 32 -3 26.5
11:55 1012 29.88 841 24.83 12.4 54.2 33 -3.4 25.9
12:00 1012 29.88 841 24.83 12.4 54.4 33 -3.2 26.2
12:05 1012 29.88 841 24.83 12.3 54.2 33 -3.5 25.8
12:10 1012 29.88 841 24.83 12.5 54.4 33 -3.5 25.8
12:15 1012 29.88 841 24.83 12.5 54.4 31 -4 24.7
12:20 1012 29.88 841 24.83 12.9 55.2 31 -3.8 25.2
12:25 1012 29.88 841 24.83 13.5 56.2 30 -3.5 25.6
12:30 1012 29.88 841 24.83 13 55.3 31 -3.7 25.4
12:35 1012 29.88 841 24.83 13.5 56.4 32 -2.8 26.9
12:40 1012 29.88 841 24.83 13.8 56.9 30 -3.3 26
12:45 1012 29.88 841 24.83 13.3 55.9 31 -3.3 26
12:50 1012 29.88 841 24.83 13.3 55.9 32 -3.1 26.5
12:55 1011 29.85 841 24.83 13.7 56.7 31 -3 26.6
13:00 1011 29.85 841 24.83 13.7 56.6 30 -3.6 25.4
13:05 1011 29.85 841 24.83 13.2 55.7 32 -3 26.7
13:10 1011 29.85 841 24.83 13.1 55.5 32 -3.3 26.1
13:15 1011 29.85 840 24.81 13.4 56.1 31 -3.4 25.9
13:20 1011 29.85 840 24.81 14.1 57.4 30 -3.3 26
13:25 1011 29.85 840 24.81 13.8 56.8 31 -3.1 26.3
13:30 1011 29.85 840 24.81 13.8 56.9 28 -4.2 24.4
13:35 1011 29.85 840 24.81 13.9 57 28 -4.5 24
13:40 1011 29.85 840 24.81 13.9 57.1 28 -4.2 24.4
13:45 1011 29.85 840 24.81 13.9 57.1 28 -4.4 24
13:50 1011 29.85 840 24.81 13.8 56.9 28 -4.3 24.2
13:55 1011 29.85 840 24.81 14.2 57.6 28 -4.2 24.5
14:00 1011 29.85 840 24.81 14.9 58.8 26 -4.5 24
14:05 1011 29.85 840 24.81 14.4 57.9 27 -4.3 24.2
14:10 1011 29.85 840 24.81 13.5 56.3 29 -4.2 24.5
14:15 1011 29.85 840 24.81 13.5 56.3 29 -4.2 24.4
14:20 1011 29.85 840 24.81 14.2 57.5 28 -4.2 24.5
14:25 1011 29.85 840 24.81 14 57.2 28 -4.3 24.3
14:30 1011 29.85 840 24.81 13.8 56.9 29 -3.7 25.3
14:35 1011 29.85 840 24.81 14.2 57.5 28 -3.8 25.2
14:40 1011 29.85 840 24.81 14.6 58.2 29 -3 26.6
14:45 1010 29.83 840 24.81 15 59 27 -3.6 25.5
14:50 1010 29.83 840 24.81 14.7 58.4 27 -3.9 24.9
14:55 1010 29.83 840 24.81 14.6 58.4 27 -4.2 24.5
15:00 1010 29.83 839 24.78 14.6 58.2 28 -3.9 25
15:05 1010 29.83 839 24.78 14.1 57.3 27 -4.6 23.7
15:10 1010 29.83 839 24.78 13.9 57 30 -3.6 25.6
15:15 1010 29.83 839 24.78 13.7 56.6 31 -3 26.6
15:20 1010 29.83 839 24.78 12.7 54.9 39 -0.9 30.3
15:25 1010 29.83 840 24.81 11.7 53 43 -0.3 31.4
15:30 1010 29.83 840 24.81 11.7 53.1 46 0.4 32.8
15:35 1010 29.83 840 24.81 12.7 54.9 36 -1.8 28.7
15:40 1010 29.83 840 24.81 13.4 56.1 32 -2.9 26.9
15:45 1010 29.83 839 24.78 13.6 56.5 31 -2.9 26.7
15:50 1010 29.83 839 24.78 13.5 56.3 31 -3.4 25.9
15:55 1010 29.83 839 24.78 13.3 55.9 31 -3.2 26.2
16:00 1010 29.83 839 24.78 13 55.4 31 -3.5 25.7
16:05 1010 29.83 839 24.78 12.7 54.8 33 -3.1 26.4
16:10 1010 29.83 839 24.78 13.4 56 31 -3.5 25.8
16:15 1010 29.83 839 24.78 12.9 55.2 32 -3.4 26
16:20 1010 29.83 839 24.78 13.1 55.6 33 -2.6 27.4
16:25 1010 29.83 839 24.78 12.8 55.1 33 -3.1 26.4
16:30 1010 29.83 839 24.78 12.5 54.5 32 -3.6 25.6
16:35 1010 29.83 839 24.78 12.4 54.2 33 -3.3 26
16:40 1010 29.83 839 24.78 12.2 54 32 -3.9 25
16:45 1010 29.83 839 24.78 12.3 54.1 32 -4.1 24.7
16:50 1010 29.83 839 24.78 12.1 53.8 35 -2.9 26.8
16:55 1010 29.83 839 24.78 12 53.6 35 -3.1 26.4
17:00 1010 29.83 839 24.78 12.3 54.2 36 -2.1 28.2
17:05 1010 29.83 839 24.78 12.8 55.1 37 -1.5 29.4
17:10 1010 29.83 839 24.78 12.9 55.2 38 -1 30.2
17:15 1010 29.83 839 24.78 12.5 54.4 40 -0.8 30.6
17:20 1010 29.83 839 24.78 11.9 53.4 43 -0.1 31.9
17:25 1010 29.83 839 24.78 11.5 52.7 47 0.6 33.2
17:30 1010 29.83 839 24.78 11.2 52.2 48 0.6 33
17:35 1010 29.83 839 24.78 11.1 52.1 47 0.3 32.5
17:40 1010 29.83 839 24.78 10.9 51.6 46 -0.1 31.7
17:45 1010 29.83 839 24.78 11.2 52.2 46 0 32
17:50 1010 29.83 840 24.81 11.9 53.5 43 -0.3 31.5
17:55 1011 29.85 840 24.81 12.2 53.9 42 -0.2 31.6
18:00 1011 29.85 840 24.81 11.8 53.2 45 0.2 32.3
18:05 1011 29.85 840 24.81 11.3 52.4 45 -0.1 31.8
18:10 1011 29.85 840 24.81 11 51.7 48 0.5 32.8
18:15 1011 29.85 840 24.81 10.4 50.8 52 1.1 34
18:20 1011 29.85 840 24.81 10.4 50.7 53 1.3 34.4
18:25 1011 29.85 840 24.81 10.2 50.4 55 1.6 34.9
18:30 1011 29.85 840 24.81 9.6 49.4 55 1.1 34.1
18:35 1011 29.85 840 24.81 9.7 49.4 54 0.8 33.4
18:40 1011 29.85 840 24.81 9.7 49.5 54 0.9 33.7
18:45 1011 29.85 840 24.81 9.7 49.5 55 1.2 34.1
18:50 1011 29.85 840 24.81 9.5 49.1 56 1.2 34.1
18:55 1011 29.85 840 24.81 9.5 49.2 57 1.4 34.6
19:00 1011 29.85 840 24.81 9.4 49 58 1.6 34.9
19:05 1011 29.85 840 24.81 9.4 48.9 59 1.9 35.4
19:10 1011 29.85 840 24.81 9.2 48.5 63 2.6 36.6
19:15 1011 29.85 840 24.81 8.6 47.5 65 2.5 36.5
19:20 1011 29.85 840 24.81 8.4 47 66 2.5 36.5
19:25 1011 29.85 840 24.81 8.3 46.9 65 2.1 35.7
19:30 1011 29.85 840 24.81 8.4 47.1 64 2.1 35.8
19:35 1011 29.85 840 24.81 8.6 47.5 59 1.2 34.1
19:40 1011 29.85 840 24.81 8.5 47.3 57 0.5 33
19:45 1011 29.85 840 24.81 8.2 46.8 57 0.3 32.6
19:50 1011 29.85 840 24.81 8.1 46.6 58 0.3 32.6
19:55 1011 29.85 840 24.81 8 46.4 59 0.4 32.7
20:00 1011 29.85 840 24.81 7.9 46.3 59 0.5 32.8
20:05 1011 29.85 840 24.81 7.9 46.1 59 0.4 32.7
20:10 1011 29.85 840 24.81 7.8 46 60 0.4 32.8
20:15 1011 29.85 840 24.81 7.7 45.9 59 0.3 32.6
20:20 1011 29.85 840 24.81 7.7 45.9 59 0.3 32.5
20:25 1011 29.85 840 24.81 7.7 45.9 59 0.3 32.5
20:30 1011 29.85 841 24.83 7.7 45.8 59 0.2 32.3
20:35 1011 29.85 841 24.83 7.6 45.6 61 0.7 33.2
20:40 1011 29.85 841 24.83 7 44.7 65 1 33.8
20:45 1011 29.85 841 24.83 6.7 44.1 67 1.1 34.1
20:50 1011 29.85 841 24.83 6.5 43.7 67 0.8 33.5
20:55 1011 29.85 841 24.83 6.3 43.4 68 0.8 33.5
21:00 1011 29.85 841 24.83 6.2 43.1 68 0.8 33.4
21:05 1012 29.88 841 24.83 6.1 43.1 68 0.8 33.4
21:10 1012 29.88 841 24.83 6.3 43.4 67 0.8 33.4
21:15 1012 29.88 841 24.83 6.3 43.3 67 0.7 33.3
21:20 1012 29.88 841 24.83 6.2 43.2 68 0.8 33.4
21:25 1012 29.88 841 24.83 6.3 43.3 66 0.5 32.8
21:30 1012 29.88 841 24.83 6.1 43.1 68 0.6 33.1
21:35 1012 29.88 841 24.83 6.1 42.9 67 0.4 32.7
21:40 1012 29.88 841 24.83 6.2 43.1 68 0.7 33.3
21:45 1012 29.88 841 24.83 6.3 43.3 67 0.6 33
21:50 1012 29.88 841 24.83 6.3 43.3 67 0.6 33.1
21:55 1012 29.88 841 24.83 6.1 43 71 1.2 34.1
22:00 1012 29.88 841 24.83 5.8 42.5 73 1.4 34.5
22:05 1012 29.88 841 24.83 5.6 42.2 74 1.4 34.5
22:10 1012 29.88 842 24.86 5.5 41.9 74 1.2 34.2
22:15 1012 29.88 842 24.86 5.7 42.3 72 1.1 34
22:20 1012 29.88 842 24.86 5.9 42.6 73 1.3 34.4
22:25 1013 29.91 842 24.86 5.7 42.3 72 1 33.8
22:30 1013 29.91 842 24.86 5.8 42.4 71 0.9 33.6
22:35 1013 29.91 842 24.86 6 42.9 67 0.5 32.8
22:40 1013 29.91 842 24.86 6 42.8 63 -0.6 31
22:45 1013 29.91 842 24.86 6 42.7 61 -1 30.1
22:50 1013 29.91 842 24.86 5.9 42.6 59 -1.5 29.2
22:55 1013 29.91 842 24.86 5.9 42.7 57 -1.9 28.5
23:00 1013 29.91 842 24.86 5.9 42.6 57 -2 28.5
23:05 1013 29.91 842 24.86 5.9 42.6 58 -1.8 28.8
23:10 1013 29.91 842 24.86 5.9 42.6 59 -1.5 29.2
23:15 1013 29.91 842 24.86 5.9 42.6 60 -1.3 29.6
23:20 1013 29.91 842 24.86 5.8 42.4 61 -1.1 30
23:25 1013 29.91 842 24.86 5.5 42 62 -1.1 30.1
23:30 1013 29.91 842 24.86 5.4 41.8 63 -1 30.3
23:35 1013 29.91 842 24.86 5.4 41.6 63 -1 30.2
23:40 1013 29.91 842 24.86 5.3 41.6 62 -1.4 29.5
23:45 1013 29.91 842 24.86 5.3 41.5 58 -2.3 27.8
23:50 1013 29.91 842 24.86 5.2 41.4 55 -3 26.5
23:55 1013 29.91 842 24.86 5.2 41.4 54 -3.3 26
24:00 1013 29.91 842 24.86 5.2 41.4 54 -3.3 26.1